Murray, Iowa
Current Conditions -  °F | °C
As of 9:15 AM on Thursday 18 Dec 2014 (Local Time) from KI75 Reporting Station
Light Snow Light Snow  
Wind Chill: 19°   Ceiling: 3400
Heat Index: 25°   Visibility: 3mi
Dew Point: 21°   Wind: 5mph
Humidity: 85%   Direction: 80°E
Pressure: 30.27"   Gusts: NA
Location:  41.04°N, 93.95°W
Report Text: KI75 181515Z AUTO 08004KT 3SM -SN OVC034 M04/M06 A3027 RMK AO2 T10381060
Loading
Personal Weather Stations






























Interactive Weather Map New forecast layout! Learn more

10-Day Weather Forecast

Advertisements
Track Severe Weather on mobile